createdAt,value
2018-08-25T00:02:25.009Z,0.60
2018-08-25T00:04:58.245Z,0.60
2018-08-25T00:07:27.656Z,0.70
2018-08-25T00:10:01.488Z,0.83
2018-08-25T00:12:30.849Z,0.80
2018-08-25T00:15:02.837Z,0.90
2018-08-25T00:17:32.172Z,0.90
2018-08-25T00:20:01.589Z,1.10
2018-08-25T00:22:34.557Z,1.47
2018-08-25T00:25:04.021Z,0.70
2018-08-25T00:27:37.848Z,0.60
2018-08-25T00:32:44.809Z,1.03
2018-08-25T00:35:14.359Z,1.30
2018-08-25T00:37:47.318Z,0.80
2018-08-25T00:40:16.685Z,0.80
2018-08-25T00:42:50.617Z,0.83
2018-08-25T00:45:20.057Z,0.90
2018-08-25T00:47:53.966Z,0.73
2018-08-25T00:50:23.337Z,0.73
2018-08-25T00:52:57.229Z,0.93
2018-08-25T00:55:26.677Z,1.13
2018-08-25T00:58:00.165Z,0.90
2018-08-25T01:00:29.556Z,0.80
2018-08-25T01:05:32.833Z,0.90
2018-08-25T01:08:02.233Z,0.80
2018-08-25T01:10:35.257Z,0.90
2018-08-25T01:13:04.625Z,0.70
2018-08-25T01:15:38.921Z,0.57
2018-08-25T01:18:08.259Z,0.70
2018-08-25T01:20:42.133Z,0.57
2018-08-25T01:23:11.499Z,0.60
2018-08-25T01:25:45.566Z,0.70
2018-08-25T01:28:24.401Z,0.70
2018-08-25T01:30:53.773Z,0.50
2018-08-25T01:35:56.610Z,0.50
2018-08-25T01:38:26.013Z,0.80
2018-08-25T01:40:59.161Z,0.43
2018-08-25T01:43:28.521Z,0.43
2018-08-25T01:46:02.402Z,0.43
2018-08-25T01:48:31.816Z,0.73
2018-08-25T01:51:05.627Z,0.60
2018-08-25T01:53:34.966Z,0.77
2018-08-25T01:56:08.266Z,0.60
2018-08-25T01:58:37.627Z,0.63
2018-08-25T02:03:40.572Z,0.70
2018-08-25T02:06:09.973Z,0.57
2018-08-25T02:08:43.293Z,0.53
2018-08-25T02:11:13.540Z,0.70
2018-08-25T02:13:46.853Z,0.77
2018-08-25T02:16:16.253Z,0.80
2018-08-25T02:18:50.095Z,0.83
2018-08-25T02:21:19.489Z,1.10
2018-08-25T02:23:53.374Z,0.90
2018-08-25T02:26:22.765Z,0.77
2018-08-25T02:28:53.050Z,0.80
2018-08-25T02:31:22.846Z,0.87
2018-08-25T02:33:52.198Z,1.00
2018-08-25T02:36:25.475Z,0.87
2018-08-25T02:38:54.829Z,1.33
2018-08-25T02:41:28.445Z,1.03
2018-08-25T02:43:57.829Z,1.53
2018-08-25T02:49:00.656Z,1.33
2018-08-25T02:51:30.054Z,0.90
2018-08-25T02:54:03.321Z,1.00
2018-08-25T02:56:32.721Z,1.00
2018-08-25T02:59:08.810Z,1.00
2018-08-25T03:01:38.201Z,1.50
2018-08-25T03:04:10.775Z,1.63
2018-08-25T03:06:40.190Z,1.40
2018-08-25T03:09:14.098Z,1.50
2018-08-25T03:11:43.489Z,1.50
2018-08-25T03:14:17.327Z,1.90
2018-08-25T03:16:46.780Z,1.90
2018-08-25T03:19:20.619Z,1.37
2018-08-25T03:22:00.945Z,1.30
2018-08-25T03:24:30.301Z,1.57
2018-08-25T03:27:03.826Z,1.60
2018-08-25T03:29:33.190Z,1.40
2018-08-25T03:32:02.526Z,1.43
2018-08-25T03:34:35.631Z,1.20
2018-08-25T03:37:05.046Z,1.20
2018-08-25T03:39:38.837Z,1.40
2018-08-25T03:42:08.213Z,1.70
2018-08-25T03:44:42.567Z,1.40
2018-08-25T03:47:12.002Z,1.20
2018-08-25T03:49:45.481Z,1.20
2018-08-25T03:52:14.858Z,1.20
2018-08-25T03:54:47.844Z,1.23
2018-08-25T03:57:17.263Z,1.50
2018-08-25T03:59:46.628Z,1.30
2018-08-25T04:02:19.514Z,1.20
2018-08-25T04:04:48.900Z,1.20
2018-08-25T04:07:22.803Z,1.33
2018-08-25T04:09:52.174Z,1.30
2018-08-25T04:12:27.125Z,1.20
2018-08-25T04:14:56.499Z,1.23
2018-08-25T04:17:30.369Z,1.17
2018-08-25T04:19:59.721Z,1.23
2018-08-25T04:22:33.594Z,1.70
2018-08-25T04:25:02.975Z,1.47
2018-08-25T04:27:36.856Z,1.40
2018-08-25T04:30:06.764Z,1.57
2018-08-25T04:32:40.337Z,1.60
2018-08-25T04:35:09.721Z,2.00
2018-08-25T04:37:39.657Z,1.30
2018-08-25T04:40:10.310Z,1.57
2018-08-25T04:42:39.666Z,1.40
2018-08-25T04:45:13.515Z,1.67
2018-08-25T04:47:42.929Z,1.43
2018-08-25T04:50:16.409Z,1.50
2018-08-25T04:52:45.821Z,1.40
2018-08-25T04:55:18.977Z,1.10
2018-08-25T04:57:48.385Z,1.50
2018-08-25T05:00:17.771Z,1.47
2018-08-25T05:02:50.858Z,1.57
2018-08-25T05:05:20.214Z,1.50
2018-08-25T05:07:54.126Z,1.53
2018-08-25T05:10:23.495Z,1.67
2018-08-25T05:12:57.390Z,1.60
2018-08-25T05:15:26.737Z,1.60
2018-08-25T05:17:56.813Z,1.60
2018-08-25T05:20:27.094Z,1.50
2018-08-25T05:22:56.482Z,2.00
2018-08-25T05:25:30.611Z,1.37
2018-08-25T05:28:00.013Z,1.47
2018-08-25T05:30:32.917Z,2.60
2018-08-25T05:33:02.281Z,2.77
2018-08-25T05:35:35.737Z,1.90
2018-08-25T05:38:05.155Z,1.77
2018-08-25T05:40:34.597Z,1.43
2018-08-25T05:43:05.518Z,1.83
2018-08-25T05:45:34.889Z,1.43
2018-08-25T05:48:08.419Z,1.50
2018-08-25T05:50:37.753Z,1.67
2018-08-25T05:53:13.505Z,1.80
2018-08-25T05:55:42.870Z,1.60
2018-08-25T05:58:16.412Z,1.60
2018-08-25T06:00:45.768Z,1.73
2018-08-25T06:03:18.710Z,1.70
2018-08-25T06:05:48.081Z,1.50
2018-08-25T06:08:17.498Z,1.50
2018-08-25T06:10:50.890Z,1.50
2018-08-25T06:13:20.393Z,1.70
2018-08-25T06:15:54.143Z,1.60
2018-08-25T06:18:23.590Z,1.80
2018-08-25T06:20:57.433Z,1.20
2018-08-25T06:23:26.815Z,1.47
2018-08-25T06:26:00.361Z,1.43
2018-08-25T06:28:29.801Z,1.70
2018-08-25T06:30:59.146Z,2.70
2018-08-25T06:33:29.569Z,1.40
2018-08-25T06:35:58.991Z,1.23
2018-08-25T06:38:32.839Z,1.30
2018-08-25T06:41:02.201Z,1.60
2018-08-25T06:43:31.610Z,1.30
2018-08-25T06:46:08.104Z,1.30
2018-08-25T06:48:42.299Z,1.70
2018-08-25T06:51:11.669Z,2.40
2018-08-25T06:53:45.527Z,2.13
2018-08-25T06:56:14.865Z,1.30
2018-08-25T06:58:48.404Z,1.50
2018-08-25T07:01:17.758Z,1.60
2018-08-25T07:06:20.707Z,1.23
2018-08-25T07:08:50.149Z,1.60
2018-08-25T07:11:23.482Z,1.13
2018-08-25T07:13:52.853Z,1.40
2018-08-25T07:16:26.437Z,1.27
2018-08-25T07:18:55.956Z,1.30
2018-08-25T07:21:29.494Z,1.20
2018-08-25T07:23:58.888Z,1.63
2018-08-25T07:26:32.080Z,1.20
2018-08-25T07:29:01.571Z,1.27
2018-08-25T07:36:44.672Z,1.20
2018-08-25T07:39:14.371Z,1.00
2018-08-25T07:41:46.210Z,1.17
2018-08-25T07:44:15.599Z,1.40
2018-08-25T07:46:49.415Z,1.30
2018-08-25T07:49:19.395Z,1.13
2018-08-25T07:51:53.248Z,0.90
2018-08-25T07:54:22.627Z,1.40
2018-08-25T07:56:56.090Z,1.10
2018-08-25T07:59:25.554Z,1.30
2018-08-25T08:01:56.683Z,1.10
2018-08-25T08:04:26.933Z,0.90
2018-08-25T08:09:32.929Z,0.83
2018-08-25T08:12:09.009Z,1.23
2018-08-25T08:14:38.388Z,0.87
2018-08-25T08:17:11.956Z,1.47
2018-08-25T08:19:41.430Z,1.63
2018-08-25T08:24:44.286Z,0.90
2018-08-25T08:27:13.654Z,0.87
2018-08-25T08:29:46.090Z,1.10
2018-08-25T08:32:15.501Z,1.10
2018-08-25T08:34:46.318Z,1.23
2018-08-25T08:37:15.701Z,0.90
2018-08-25T08:39:45.086Z,1.00
2018-08-25T08:42:19.038Z,1.13
2018-08-25T08:44:48.378Z,0.90
2018-08-25T08:47:22.463Z,1.00
2018-08-25T08:49:51.881Z,1.17
2018-08-25T08:52:27.045Z,0.80
2018-08-25T08:54:56.449Z,1.00
2018-08-25T08:57:30.315Z,1.03
2018-08-25T08:59:59.653Z,1.17
2018-08-25T09:02:33.501Z,1.00
2018-08-25T09:05:02.844Z,0.93
2018-08-25T09:07:36.361Z,0.77
2018-08-25T09:10:05.829Z,1.30
2018-08-25T09:12:35.327Z,1.07
2018-08-25T09:15:06.821Z,0.83
2018-08-25T09:17:36.179Z,1.00
2018-08-25T09:20:09.133Z,1.13
2018-08-25T09:22:38.537Z,1.00
2018-08-25T09:25:09.067Z,1.20
2018-08-25T09:27:38.857Z,1.03
2018-08-25T09:30:09.442Z,0.97
2018-08-25T09:32:43.313Z,0.90
2018-08-25T09:35:12.649Z,0.83
2018-08-25T09:37:46.488Z,0.70
2018-08-25T09:40:15.888Z,1.10
2018-08-25T09:42:49.156Z,0.80
2018-08-25T09:45:18.517Z,1.07
2018-08-25T09:47:52.045Z,0.80
2018-08-25T09:50:21.385Z,1.30
2018-08-25T09:52:52.555Z,1.00
2018-08-25T09:55:23.653Z,0.70
2018-08-25T09:57:53.034Z,0.73
2018-08-25T10:00:26.925Z,0.93
2018-08-25T10:02:56.397Z,1.00
2018-08-25T10:05:30.373Z,1.03
2018-08-25T10:07:59.749Z,1.00
2018-08-25T10:10:34.545Z,1.20
2018-08-25T10:13:03.938Z,0.77
2018-08-25T10:15:37.776Z,0.50
2018-08-25T10:18:07.160Z,0.83
2018-08-25T10:20:41.000Z,1.03
2018-08-25T10:23:10.398Z,0.90
2018-08-25T10:25:43.853Z,0.70
2018-08-25T10:28:13.257Z,0.53
2018-08-25T10:30:42.588Z,0.80
2018-08-25T10:33:13.641Z,0.80
2018-08-25T10:35:43.020Z,0.80
2018-08-25T10:38:16.849Z,0.73
2018-08-25T10:40:46.229Z,0.90
2018-08-25T10:43:19.666Z,0.73
2018-08-25T10:45:49.034Z,1.07
2018-08-25T10:48:18.405Z,1.50
2018-08-25T10:50:47.746Z,1.33
2018-08-25T10:53:20.717Z,0.77
2018-08-25T10:55:59.561Z,0.57
2018-08-25T10:58:28.953Z,0.73
2018-08-25T11:01:02.994Z,0.73
2018-08-25T11:03:32.501Z,0.70
2018-08-25T11:06:06.450Z,0.60
2018-08-25T11:08:35.841Z,0.70
2018-08-25T11:11:10.053Z,0.77
2018-08-25T11:13:39.445Z,0.57
2018-08-25T11:16:09.481Z,0.60
2018-08-25T11:18:42.868Z,0.90
2018-08-25T11:21:12.219Z,0.90
2018-08-25T11:23:43.384Z,0.70
2018-08-25T11:26:12.719Z,1.20
2018-08-25T11:28:46.608Z,1.00
2018-08-25T11:31:16.041Z,0.90
2018-08-25T11:33:49.660Z,0.80
2018-08-25T11:36:19.040Z,1.27
2018-08-25T11:38:53.048Z,0.70
2018-08-25T11:41:22.505Z,0.77
2018-08-25T11:43:53.877Z,0.73
2018-08-25T11:46:24.100Z,3.67
2018-08-25T11:48:53.457Z,0.90
2018-08-25T11:51:27.290Z,0.80
2018-08-25T11:53:56.801Z,0.70
2018-08-25T11:56:28.829Z,1.00
2018-08-25T11:58:58.197Z,0.83
2018-08-25T12:01:27.561Z,0.53
2018-08-25T12:03:59.856Z,0.80
2018-08-25T12:06:29.225Z,0.80
2018-08-25T12:09:10.498Z,1.10
2018-08-25T12:11:42.165Z,0.90
2018-08-25T12:14:11.601Z,0.83
2018-08-25T12:16:45.093Z,0.63
2018-08-25T12:19:14.509Z,0.87
2018-08-25T12:21:47.638Z,0.60
2018-08-25T12:24:17.115Z,1.40
2018-08-25T12:26:46.519Z,0.60
2018-08-25T12:29:20.373Z,0.60
2018-08-25T12:31:49.745Z,0.40
2018-08-25T12:34:23.237Z,0.80
2018-08-25T12:36:52.594Z,0.90
2018-08-25T12:39:26.526Z,0.70
2018-08-25T12:41:55.837Z,0.67
2018-08-25T12:44:29.371Z,0.47
2018-08-25T12:46:58.738Z,0.83
2018-08-25T12:52:01.529Z,0.77
2018-08-25T12:54:30.937Z,0.93
2018-08-25T12:57:04.082Z,0.80
2018-08-25T12:59:33.497Z,0.77
2018-08-25T13:02:07.045Z,0.60
2018-08-25T13:04:36.494Z,0.60
2018-08-25T13:07:10.596Z,0.90
2018-08-25T13:09:39.977Z,0.90
2018-08-25T13:12:13.473Z,0.80
2018-08-25T13:14:43.453Z,1.10
2018-08-25T13:17:16.913Z,0.80
2018-08-25T13:19:46.426Z,0.70
2018-08-25T13:22:20.162Z,0.67
2018-08-25T13:24:49.626Z,0.70
2018-08-25T13:27:19.007Z,0.97
2018-08-25T13:29:52.037Z,0.60
2018-08-25T13:32:21.369Z,0.50
2018-08-25T13:34:51.417Z,0.70
2018-08-25T13:37:20.775Z,0.70
2018-08-25T13:39:50.256Z,0.70
2018-08-25T13:42:23.217Z,0.63
2018-08-25T13:44:52.673Z,0.70
2018-08-25T13:47:26.566Z,0.97
2018-08-25T13:49:55.977Z,0.50
2018-08-25T13:52:29.501Z,0.60
2018-08-25T13:54:58.873Z,1.00
2018-08-25T14:00:01.693Z,0.80
2018-08-25T14:02:31.038Z,0.40
2018-08-25T14:05:04.333Z,0.70
2018-08-25T14:07:33.689Z,0.40
2018-08-25T14:10:07.158Z,0.60
2018-08-25T14:12:36.526Z,0.83
2018-08-25T14:15:10.509Z,0.70
2018-08-25T14:17:39.865Z,0.60
2018-08-25T14:20:14.162Z,0.90
2018-08-25T14:22:43.491Z,1.03
2018-08-25T14:25:17.187Z,0.90
2018-08-25T14:27:46.602Z,0.63
2018-08-25T14:30:16.766Z,1.47
2018-08-25T14:32:48.049Z,0.93
2018-08-25T14:35:17.502Z,0.53
2018-08-25T14:37:47.993Z,0.80
2018-08-25T14:40:17.401Z,0.67
2018-08-25T14:42:46.779Z,0.60
2018-08-25T14:45:19.454Z,0.60
2018-08-25T14:47:48.814Z,0.70
2018-08-25T14:50:22.678Z,1.33
2018-08-25T14:52:52.037Z,0.80
2018-08-25T14:55:25.034Z,0.80
2018-08-25T14:57:54.459Z,0.70
2018-08-25T15:00:25.990Z,0.90
2018-08-25T15:02:56.094Z,0.87
2018-08-25T15:05:25.565Z,1.10
2018-08-25T15:07:59.785Z,0.73
2018-08-25T15:10:29.610Z,0.87
2018-08-25T15:13:03.441Z,0.80
2018-08-25T15:15:32.838Z,0.70
2018-08-25T15:18:07.033Z,0.70
2018-08-25T15:20:36.414Z,0.87
2018-08-25T15:23:10.226Z,0.70
2018-08-25T15:25:39.605Z,1.00
2018-08-25T15:28:12.964Z,0.70
2018-08-25T15:30:42.335Z,0.83
2018-08-25T15:33:11.665Z,0.80
2018-08-25T15:35:42.997Z,0.87
2018-08-25T15:38:12.338Z,0.80
2018-08-25T15:40:45.826Z,0.70
2018-08-25T15:43:15.194Z,0.70
2018-08-25T15:45:49.250Z,0.60
2018-08-25T15:48:18.622Z,0.53
2018-08-25T15:50:48.842Z,0.57
2018-08-25T15:53:19.970Z,0.73
2018-08-25T15:55:49.425Z,0.77
2018-08-25T15:58:22.461Z,0.60
2018-08-25T16:00:51.902Z,0.80
2018-08-25T16:03:24.937Z,0.80
2018-08-25T16:05:54.377Z,0.80
2018-08-25T16:08:23.770Z,0.80
2018-08-25T16:10:56.837Z,0.80
2018-08-25T16:13:26.170Z,0.60
2018-08-25T16:15:59.898Z,0.60
2018-08-25T16:18:29.258Z,0.67
2018-08-25T16:21:02.876Z,2.30
2018-08-25T16:23:32.254Z,1.00
2018-08-25T16:26:05.774Z,0.80
2018-08-25T16:28:35.153Z,0.63
2018-08-25T16:31:08.594Z,0.67
2018-08-25T16:33:41.028Z,0.63
2018-08-25T16:36:14.955Z,1.30
2018-08-25T16:38:44.326Z,0.57
2018-08-25T16:41:18.153Z,0.70
2018-08-25T16:43:47.506Z,0.63
2018-08-25T16:46:21.049Z,1.10
2018-08-25T16:48:50.410Z,0.70
2018-08-25T16:51:19.782Z,0.93
2018-08-25T16:53:50.833Z,0.60
2018-08-25T16:56:30.291Z,0.60
2018-08-25T16:58:59.706Z,0.57
2018-08-25T17:01:31.344Z,1.33
2018-08-25T17:04:00.793Z,0.70
2018-08-25T17:06:30.169Z,0.70
2018-08-25T17:09:05.501Z,1.57
2018-08-25T17:11:34.937Z,0.87
2018-08-25T17:14:08.290Z,1.10
2018-08-25T17:16:37.727Z,0.70
2018-08-25T17:19:10.902Z,1.40
2018-08-25T17:21:40.254Z,0.77
2018-08-25T17:24:14.098Z,0.77
2018-08-25T17:26:43.568Z,0.70
2018-08-25T17:29:13.677Z,0.77
2018-08-25T17:31:43.938Z,0.77
2018-08-25T17:34:13.315Z,0.70
2018-08-25T17:36:47.447Z,0.70
2018-08-25T17:39:16.851Z,0.73
2018-08-25T17:41:50.833Z,0.60
2018-08-25T17:44:20.265Z,0.80
2018-08-25T17:46:55.240Z,0.80
2018-08-25T17:49:34.353Z,0.83
2018-08-25T17:52:03.699Z,0.60
2018-08-25T17:54:37.197Z,0.63
2018-08-25T17:57:06.672Z,1.20
2018-08-25T18:02:09.624Z,0.90
2018-08-25T18:04:38.954Z,1.53
2018-08-25T18:07:11.094Z,0.80
2018-08-25T18:09:40.522Z,0.70
2018-08-25T18:12:14.377Z,1.73
2018-08-25T18:14:43.777Z,2.20
2018-08-25T18:17:18.266Z,2.90
2018-08-25T18:19:47.665Z,6.63
2018-08-25T18:22:21.121Z,1.57
2018-08-25T18:24:50.488Z,1.10
2018-08-25T18:27:21.650Z,0.90
2018-08-25T18:29:51.877Z,0.90
2018-08-25T18:32:21.231Z,0.97
2018-08-25T18:34:55.049Z,0.83
2018-08-25T18:37:24.385Z,0.80
2018-08-25T18:39:57.046Z,0.80
2018-08-25T18:42:26.384Z,0.83
2018-08-25T18:44:55.782Z,0.93
2018-08-25T18:47:27.235Z,0.90
2018-08-25T18:49:56.781Z,0.80
2018-08-25T18:52:30.895Z,1.10
2018-08-25T18:55:00.320Z,0.97
2018-08-25T18:57:35.386Z,1.10
2018-08-25T19:00:04.872Z,1.00
2018-08-25T19:02:38.672Z,0.80
2018-08-25T19:05:08.074Z,0.80
2018-08-25T19:07:41.933Z,0.90
2018-08-25T19:10:11.347Z,1.10
2018-08-25T19:12:44.935Z,0.60
2018-08-25T19:15:14.294Z,1.00
2018-08-25T19:17:43.641Z,0.87
2018-08-25T19:20:15.447Z,0.60
2018-08-25T19:22:44.801Z,0.93
2018-08-25T19:25:17.839Z,1.17
2018-08-25T19:27:47.226Z,1.13
2018-08-25T19:30:20.605Z,1.67
2018-08-25T19:32:49.958Z,1.67
2018-08-25T19:35:19.372Z,2.33
2018-08-25T19:37:51.230Z,2.63
2018-08-25T19:40:20.630Z,1.70
2018-08-25T19:42:54.576Z,1.50
2018-08-25T19:45:23.947Z,1.47
2018-08-25T19:47:57.193Z,1.90
2018-08-25T19:50:26.602Z,1.90
2018-08-25T19:52:55.954Z,1.40
2018-08-25T19:55:27.741Z,1.50
2018-08-25T19:57:57.089Z,1.37
2018-08-25T20:00:30.949Z,1.40
2018-08-25T20:03:00.300Z,2.30
2018-08-25T20:05:34.089Z,1.90
2018-08-25T20:08:03.338Z,1.67
2018-08-25T20:13:06.225Z,1.77
2018-08-25T20:15:35.585Z,1.50
2018-08-25T20:18:06.285Z,2.57
2018-08-25T20:20:35.717Z,6.47
2018-08-25T20:23:09.250Z,12.23
2018-08-25T20:25:38.653Z,7.37
2018-08-25T20:28:08.496Z,4.80
2018-08-25T20:30:39.394Z,4.17
2018-08-25T20:33:08.802Z,2.87
2018-08-25T20:35:39.626Z,2.43
2018-08-25T20:38:09.008Z,1.90
2018-08-25T20:40:38.369Z,2.00
2018-08-25T20:43:11.334Z,1.77
2018-08-25T20:45:40.805Z,1.53
2018-08-25T20:48:14.573Z,1.90
2018-08-25T20:50:43.961Z,1.70
2018-08-25T20:53:17.405Z,1.50
2018-08-25T20:55:46.785Z,1.80
2018-08-25T20:58:20.646Z,1.80
2018-08-25T21:00:50.110Z,1.23
2018-08-25T21:03:19.422Z,1.40
2018-08-25T21:05:52.697Z,1.10
2018-08-25T21:08:22.037Z,1.17
2018-08-25T21:10:56.070Z,1.10
2018-08-25T21:13:25.399Z,1.10
2018-08-25T21:16:00.199Z,1.57
2018-08-25T21:18:29.516Z,1.30
2018-08-25T21:21:03.381Z,0.80
2018-08-25T21:23:32.713Z,0.80
2018-08-25T21:26:05.937Z,0.70
2018-08-25T21:28:35.277Z,0.60
2018-08-25T21:33:38.125Z,0.67
2018-08-25T21:36:07.529Z,0.53
2018-08-25T21:38:39.481Z,0.57
2018-08-25T21:41:09.053Z,0.73
2018-08-25T21:43:42.055Z,0.80
2018-08-25T21:46:11.477Z,0.70
2018-08-25T21:48:43.037Z,0.80
2018-08-25T21:51:12.469Z,0.80
2018-08-25T21:53:41.830Z,0.70
2018-08-25T21:56:13.545Z,0.70
2018-08-25T21:58:42.925Z,0.70
2018-08-25T22:03:45.759Z,0.67
2018-08-25T22:06:15.162Z,0.60
2018-08-25T22:08:47.221Z,0.93
2018-08-25T22:11:16.697Z,0.73
2018-08-25T22:13:50.500Z,0.73
2018-08-25T22:16:19.883Z,0.67
2018-08-25T22:18:53.369Z,0.70
2018-08-25T22:21:22.835Z,0.50
2018-08-25T22:23:53.067Z,0.60
2018-08-25T22:26:24.765Z,0.70
2018-08-25T22:28:54.491Z,0.60
2018-08-25T22:31:27.667Z,0.70
2018-08-25T22:33:56.993Z,0.80
2018-08-25T22:36:30.821Z,0.53
2018-08-25T22:39:00.178Z,0.50
2018-08-25T22:41:34.072Z,0.40
2018-08-25T22:44:03.398Z,0.70
2018-08-25T22:46:32.758Z,0.60
2018-08-25T22:49:02.918Z,0.70
2018-08-25T22:51:32.313Z,0.60
2018-08-25T22:54:07.266Z,0.70
2018-08-25T22:56:36.593Z,0.83
2018-08-25T22:59:06.783Z,0.50
2018-08-25T23:01:36.165Z,0.80
2018-08-25T23:04:05.604Z,0.63
2018-08-25T23:06:39.730Z,0.70
2018-08-25T23:09:10.167Z,0.60
2018-08-25T23:11:43.433Z,0.77
2018-08-25T23:14:12.794Z,0.80
2018-08-25T23:16:46.694Z,1.20
2018-08-25T23:19:16.029Z,0.90
2018-08-25T23:21:49.553Z,1.00
2018-08-25T23:24:18.882Z,1.03
2018-08-25T23:26:48.238Z,1.00
2018-08-25T23:29:18.341Z,0.93
2018-08-25T23:31:47.733Z,1.00
2018-08-25T23:34:21.182Z,0.83
2018-08-25T23:36:50.543Z,1.17
2018-08-25T23:39:20.254Z,0.80
2018-08-25T23:41:53.281Z,0.70
2018-08-25T23:44:22.638Z,0.80
2018-08-25T23:46:56.497Z,0.60
2018-08-25T23:49:25.836Z,0.80
2018-08-25T23:51:58.186Z,0.93
2018-08-25T23:54:27.552Z,0.70
2018-08-25T23:57:01.045Z,0.90
2018-08-25T23:59:30.377Z,1.10
